createdAt,value
2023-04-15T00:01:43.169Z,9.60
2023-04-15T00:04:14.604Z,7.50
2023-04-15T00:06:51.673Z,8.20
2023-04-15T00:09:23.464Z,9.50
2023-04-15T00:11:55.216Z,10.40
2023-04-15T00:14:26.905Z,9.20
2023-04-15T00:16:58.601Z,10.40
2023-04-15T00:19:30.094Z,8.20
2023-04-15T00:22:01.780Z,10.30
2023-04-15T00:24:33.237Z,8.20
2023-04-15T00:27:04.681Z,9.00
2023-04-15T00:29:36.303Z,8.80
2023-04-15T00:32:07.873Z,9.60
2023-04-15T00:34:39.262Z,10.00
2023-04-15T00:37:11.502Z,11.50
2023-04-15T00:39:42.992Z,9.70
2023-04-15T00:42:14.976Z,8.10
2023-04-15T00:44:46.239Z,8.40
2023-04-15T00:47:19.138Z,8.90
2023-04-15T00:49:50.764Z,9.70
2023-04-15T00:52:22.414Z,10.20
2023-04-15T00:54:54.034Z,11.00
2023-04-15T00:57:26.172Z,9.50
2023-04-15T00:59:59.380Z,10.40
2023-04-15T01:02:31.049Z,9.80
2023-04-15T01:05:02.502Z,10.30
2023-04-15T01:07:34.066Z,10.80
2023-04-15T01:10:06.476Z,10.90
2023-04-15T01:12:38.117Z,9.40
2023-04-15T01:15:11.886Z,8.30
2023-04-15T01:17:43.777Z,10.30
2023-04-15T01:20:16.360Z,10.10
2023-04-15T01:22:48.156Z,10.60
2023-04-15T01:25:24.323Z,11.70
2023-04-15T01:27:55.793Z,8.40
2023-04-15T01:30:27.612Z,9.50
2023-04-15T01:32:58.984Z,9.10
2023-04-15T01:35:30.595Z,8.80
2023-04-15T01:38:06.767Z,11.80
2023-04-15T01:40:38.298Z,9.20
2023-04-15T01:43:09.599Z,9.60
2023-04-15T01:45:41.185Z,8.90
2023-04-15T01:48:12.673Z,10.40
2023-04-15T01:50:44.202Z,10.60
2023-04-15T01:53:16.194Z,11.50
2023-04-15T01:55:47.684Z,11.40
2023-04-15T01:58:19.292Z,10.10
2023-04-15T02:00:50.855Z,13.70
2023-04-15T02:03:22.725Z,13.90
2023-04-15T02:05:54.263Z,12.90
2023-04-15T02:08:25.569Z,11.60
2023-04-15T02:10:57.066Z,13.30
2023-04-15T02:13:28.779Z,14.10
2023-04-15T02:16:00.760Z,14.20
2023-04-15T02:18:32.207Z,15.10
2023-04-15T02:21:06.555Z,13.40
2023-04-15T02:23:38.057Z,13.70
2023-04-15T02:26:09.663Z,18.00
2023-04-15T02:28:41.100Z,14.90
2023-04-15T02:31:12.387Z,15.70
2023-04-15T02:33:43.944Z,18.90
2023-04-15T02:36:15.375Z,18.70
2023-04-15T02:38:46.767Z,17.40
2023-04-15T02:41:18.139Z,19.50
2023-04-15T02:43:49.548Z,19.70
2023-04-15T02:46:23.201Z,17.00
2023-04-15T02:48:54.891Z,21.20
2023-04-15T02:51:26.338Z,20.90
2023-04-15T02:53:58.335Z,20.60
2023-04-15T02:56:30.588Z,21.60
2023-04-15T02:59:02.349Z,21.30
2023-04-15T03:01:33.686Z,20.60
2023-04-15T03:04:05.313Z,23.60
2023-04-15T03:06:36.886Z,21.80
2023-04-15T03:09:08.344Z,23.30
2023-04-15T03:11:41.840Z,19.50
2023-04-15T03:14:13.471Z,21.00
2023-04-15T03:16:44.852Z,20.20
2023-04-15T03:19:16.369Z,22.80
2023-04-15T03:21:47.606Z,21.80
2023-04-15T03:24:19.010Z,21.80
2023-04-15T03:26:50.521Z,23.30
2023-04-15T03:29:21.874Z,20.00
2023-04-15T03:31:53.602Z,20.40
2023-04-15T03:34:24.952Z,21.70
2023-04-15T03:36:56.494Z,20.80
2023-04-15T03:39:28.677Z,22.20
2023-04-15T03:42:10.222Z,23.10
2023-04-15T03:44:51.408Z,21.50
2023-04-15T03:47:30.282Z,24.10
2023-04-15T03:50:12.946Z,22.60
2023-04-15T03:52:57.139Z,23.20
2023-04-15T03:55:37.951Z,23.50
2023-04-15T03:58:18.827Z,20.10
2023-04-15T04:00:50.323Z,18.80
2023-04-15T04:03:22.014Z,28.60
2023-04-15T04:05:54.162Z,23.90
2023-04-15T04:08:25.446Z,22.10
2023-04-15T04:10:57.427Z,23.70
2023-04-15T04:13:28.821Z,22.70
2023-04-15T04:16:00.432Z,20.80
2023-04-15T04:18:31.915Z,21.80
2023-04-15T04:21:03.697Z,21.10
2023-04-15T04:23:35.208Z,19.80
2023-04-15T04:26:06.470Z,22.80
2023-04-15T04:28:39.829Z,19.70
2023-04-15T04:31:11.677Z,20.80
2023-04-15T04:33:43.378Z,24.20
2023-04-15T04:36:14.813Z,21.70
2023-04-15T04:38:46.211Z,22.00
2023-04-15T04:41:17.868Z,20.40
2023-04-15T04:43:49.315Z,23.00
2023-04-15T04:46:20.908Z,23.40
2023-04-15T04:48:52.246Z,18.10
2023-04-15T04:51:23.583Z,21.70
2023-04-15T04:53:55.374Z,20.00
2023-04-15T04:56:26.717Z,18.60
2023-04-15T04:58:58.387Z,26.20
2023-04-15T05:01:29.953Z,19.10
2023-04-15T05:04:01.595Z,20.00
2023-04-15T05:06:33.463Z,18.10
2023-04-15T05:09:04.951Z,21.40
2023-04-15T05:11:36.523Z,18.70
2023-04-15T05:14:07.840Z,20.40
2023-04-15T05:16:39.072Z,16.60
2023-04-15T05:19:10.923Z,16.60
2023-04-15T05:21:42.299Z,15.90
2023-04-15T05:24:13.830Z,17.50
2023-04-15T05:26:45.202Z,17.60
2023-04-15T05:29:16.568Z,20.10
2023-04-15T05:31:48.063Z,19.30
2023-04-15T05:34:19.610Z,18.70
2023-04-15T05:36:51.119Z,22.30
2023-04-15T05:39:22.591Z,19.70
2023-04-15T05:41:54.027Z,17.50
2023-04-15T05:44:25.966Z,20.10
2023-04-15T05:46:57.396Z,19.10
2023-04-15T05:49:29.102Z,21.50
2023-04-15T05:52:00.476Z,22.00
2023-04-15T05:54:31.970Z,23.30
2023-04-15T05:57:03.468Z,23.30
2023-04-15T05:59:34.930Z,20.80
2023-04-15T06:02:06.543Z,22.00
2023-04-15T06:04:38.852Z,23.10
2023-04-15T06:07:10.310Z,23.60
2023-04-15T06:09:42.057Z,26.90
2023-04-15T06:12:13.509Z,24.00
2023-04-15T06:14:44.980Z,23.40
2023-04-15T06:17:18.750Z,24.60
2023-04-15T06:19:55.681Z,26.40
2023-04-15T06:22:27.255Z,23.90
2023-04-15T06:24:58.650Z,26.60
2023-04-15T06:27:30.105Z,24.00
2023-04-15T06:30:01.663Z,28.40
2023-04-15T06:32:33.867Z,24.30
2023-04-15T06:35:05.746Z,23.20
2023-04-15T06:37:37.385Z,25.00
2023-04-15T06:40:11.451Z,22.60
2023-04-15T06:42:42.769Z,24.20
2023-04-15T06:45:15.030Z,23.80
2023-04-15T06:47:47.072Z,21.00
2023-04-15T06:50:18.633Z,25.10
2023-04-15T06:52:50.194Z,26.70
2023-04-15T06:55:21.726Z,23.80
2023-04-15T06:57:53.255Z,23.30
2023-04-15T07:00:25.781Z,25.40
2023-04-15T07:02:57.404Z,25.70
2023-04-15T07:05:28.896Z,26.90
2023-04-15T07:08:00.633Z,31.70
2023-04-15T07:10:31.981Z,31.00
2023-04-15T07:13:03.497Z,26.80
2023-04-15T07:15:34.916Z,24.10
2023-04-15T07:18:07.087Z,25.30
2023-04-15T07:20:38.689Z,26.30
2023-04-15T07:23:10.216Z,27.00
2023-04-15T07:25:41.623Z,31.30
2023-04-15T07:28:13.150Z,32.00
2023-04-15T07:30:44.496Z,30.30
2023-04-15T07:33:16.095Z,27.50
2023-04-15T07:35:48.088Z,29.90
2023-04-15T07:38:19.451Z,29.10
2023-04-15T07:40:51.269Z,36.00
2023-04-15T07:43:23.146Z,26.80
2023-04-15T07:45:54.659Z,25.00
2023-04-15T07:48:26.176Z,29.70
2023-04-15T07:50:57.968Z,30.50
2023-04-15T07:53:29.743Z,28.00
2023-04-15T07:56:01.571Z,28.30
2023-04-15T07:58:33.423Z,29.60
2023-04-15T08:01:06.165Z,28.40
2023-04-15T08:03:37.929Z,33.40
2023-04-15T08:06:09.807Z,28.80
2023-04-15T08:08:43.410Z,30.40
2023-04-15T08:11:16.575Z,27.50
2023-04-15T08:13:48.416Z,24.50
2023-04-15T08:16:23.286Z,28.30
2023-04-15T08:18:57.068Z,27.20
2023-04-15T08:21:31.137Z,21.80
2023-04-15T08:24:04.231Z,22.00
2023-04-15T08:26:36.004Z,22.50
2023-04-15T08:29:07.710Z,18.10
2023-04-15T08:31:39.553Z,22.80
2023-04-15T08:34:11.084Z,19.70
2023-04-15T08:36:42.886Z,19.10
2023-04-15T08:39:14.578Z,20.10
2023-04-15T08:41:50.069Z,22.90
2023-04-15T08:44:22.750Z,32.70
2023-04-15T08:46:55.004Z,21.50
2023-04-15T08:49:28.889Z,19.90
2023-04-15T08:52:02.086Z,20.00
2023-04-15T08:54:34.005Z,17.20
2023-04-15T08:57:05.917Z,20.70
2023-04-15T08:59:37.452Z,19.90
2023-04-15T09:02:09.487Z,19.00
2023-04-15T09:04:41.708Z,19.20
2023-04-15T09:07:13.248Z,20.50
2023-04-15T09:09:44.612Z,15.70
2023-04-15T09:12:17.306Z,22.10
2023-04-15T09:14:49.737Z,17.90
2023-04-15T09:17:23.046Z,23.00
2023-04-15T09:20:12.034Z,18.30
2023-04-15T09:22:44.513Z,20.40
2023-04-15T09:25:34.815Z,17.90
2023-04-15T09:28:08.678Z,17.70
2023-04-15T09:30:40.260Z,18.40
2023-04-15T09:33:12.421Z,20.70
2023-04-15T09:35:44.150Z,15.80
2023-04-15T09:38:16.143Z,19.50
2023-04-15T09:40:47.648Z,20.70
2023-04-15T09:43:19.294Z,19.40
2023-04-15T09:45:55.964Z,16.80
2023-04-15T09:48:29.289Z,19.40
2023-04-15T09:51:03.062Z,15.80
2023-04-15T09:53:39.277Z,20.60
2023-04-15T09:56:12.414Z,14.00
2023-04-15T09:58:44.532Z,20.70
2023-04-15T10:01:16.022Z,17.80
2023-04-15T10:03:48.913Z,22.60
2023-04-15T10:06:20.873Z,21.10
2023-04-15T10:08:52.423Z,18.30
2023-04-15T10:11:24.997Z,18.30
2023-04-15T10:13:57.908Z,17.10
2023-04-15T10:16:31.497Z,17.10
2023-04-15T10:19:05.910Z,18.70
2023-04-15T10:21:39.199Z,19.00
2023-04-15T10:24:11.483Z,20.70
2023-04-15T10:26:43.553Z,19.40
2023-04-15T10:29:16.078Z,19.60
2023-04-15T10:31:48.033Z,22.60
2023-04-15T10:34:20.507Z,20.00
2023-04-15T10:36:52.642Z,22.20
2023-04-15T10:39:47.081Z,20.60
2023-04-15T10:42:20.984Z,21.40
2023-04-15T10:45:03.889Z,21.50
2023-04-15T10:47:35.905Z,22.10
2023-04-15T10:50:08.680Z,19.70
2023-04-15T10:52:45.311Z,21.40
2023-04-15T10:55:21.367Z,20.00
2023-04-15T10:58:01.949Z,20.00
2023-04-15T11:00:40.144Z,23.60
2023-04-15T11:03:12.529Z,23.40
2023-04-15T11:06:04.325Z,18.30
2023-04-15T11:09:02.853Z,17.40
2023-04-15T11:12:10.023Z,17.90
2023-04-15T11:14:54.139Z,17.70
2023-04-15T11:17:32.001Z,17.50
2023-04-15T11:20:05.823Z,16.10
2023-04-15T11:22:37.770Z,16.60
2023-04-15T11:25:10.250Z,20.90
2023-04-15T11:27:41.809Z,19.90
2023-04-15T11:30:24.601Z,20.00
2023-04-15T11:33:00.146Z,17.40
2023-04-15T11:35:31.858Z,14.90
2023-04-15T11:38:07.065Z,13.80
2023-04-15T11:40:39.470Z,17.60
2023-04-15T11:43:13.410Z,16.70
2023-04-15T11:45:56.171Z,14.40
2023-04-15T11:48:29.345Z,10.80
2023-04-15T11:51:01.959Z,10.60
2023-04-15T11:53:42.440Z,11.70
2023-04-15T11:56:19.997Z,9.30
2023-04-15T11:58:53.645Z,11.60
2023-04-15T12:01:35.454Z,11.10
2023-04-15T12:04:15.026Z,9.70
2023-04-15T12:06:46.613Z,12.90
2023-04-15T12:09:18.361Z,10.10
2023-04-15T12:11:51.613Z,11.80
2023-04-15T12:14:29.304Z,13.20
2023-04-15T12:17:02.566Z,9.70
2023-04-15T12:19:36.853Z,10.40
2023-04-15T12:22:10.614Z,11.00
2023-04-15T12:24:44.326Z,9.60
2023-04-15T12:27:17.229Z,8.00
2023-04-15T12:29:48.738Z,8.10
2023-04-15T12:32:22.191Z,9.20
2023-04-15T12:34:55.548Z,7.90
2023-04-15T12:37:27.521Z,7.20
2023-04-15T12:39:59.004Z,8.00
2023-04-15T12:42:31.905Z,7.30
2023-04-15T12:45:03.386Z,7.60
2023-04-15T12:47:35.106Z,11.00
2023-04-15T12:50:07.542Z,6.60
2023-04-15T12:52:39.074Z,9.50
2023-04-15T12:55:12.683Z,6.70
2023-04-15T12:57:44.625Z,9.10
2023-04-15T13:00:19.090Z,8.70
2023-04-15T13:02:51.209Z,7.40
2023-04-15T13:05:22.772Z,8.00
2023-04-15T13:07:54.420Z,8.20
2023-04-15T13:10:25.962Z,8.30
2023-04-15T13:12:58.175Z,7.70
2023-04-15T13:15:29.626Z,8.50
2023-04-15T13:18:01.486Z,8.20
2023-04-15T13:20:33.122Z,7.00
2023-04-15T13:23:04.687Z,6.60
2023-04-15T13:25:36.635Z,7.10
2023-04-15T13:28:08.125Z,7.60
2023-04-15T13:30:40.989Z,6.20
2023-04-15T13:33:12.433Z,5.80
2023-04-15T13:35:44.601Z,5.50
2023-04-15T13:38:16.220Z,5.10
2023-04-15T13:40:47.912Z,6.00
2023-04-15T13:43:19.749Z,7.80
2023-04-15T13:45:51.767Z,7.10
2023-04-15T13:48:23.266Z,5.40
2023-04-15T13:50:54.620Z,5.00
2023-04-15T13:53:33.994Z,5.60
2023-04-15T13:56:12.089Z,4.70
2023-04-15T13:58:44.571Z,4.40
2023-04-15T14:01:16.763Z,3.80
2023-04-15T14:03:48.310Z,2.60
2023-04-15T14:06:20.008Z,4.20
2023-04-15T14:08:53.094Z,3.40
2023-04-15T14:11:24.870Z,2.80
2023-04-15T14:13:56.353Z,2.80
2023-04-15T14:16:27.844Z,2.50
2023-04-15T14:19:00.234Z,2.30
2023-04-15T14:21:32.908Z,2.10
2023-04-15T14:24:04.308Z,3.00
2023-04-15T14:26:35.897Z,2.80
2023-04-15T14:29:07.477Z,3.00
2023-04-15T14:31:38.920Z,2.50
2023-04-15T14:34:13.152Z,2.50
2023-04-15T14:36:45.103Z,2.20
2023-04-15T14:39:17.443Z,4.80
2023-04-15T14:41:49.807Z,2.20
2023-04-15T14:44:21.761Z,2.40
2023-04-15T14:46:54.978Z,2.60
2023-04-15T14:49:27.008Z,2.70
2023-04-15T14:51:58.421Z,4.10
2023-04-15T14:54:30.310Z,2.40
2023-04-15T14:57:03.295Z,3.90
2023-04-15T14:59:34.925Z,2.90
2023-04-15T15:02:06.937Z,3.00
2023-04-15T15:04:40.938Z,2.50
2023-04-15T15:07:12.509Z,2.70
2023-04-15T15:09:43.974Z,2.80
2023-04-15T15:12:16.534Z,5.80
2023-04-15T15:14:48.093Z,3.40
2023-04-15T15:17:20.942Z,4.70
2023-04-15T15:19:54.606Z,3.70
2023-04-15T15:22:26.353Z,3.70
2023-04-15T15:25:00.512Z,3.20
2023-04-15T15:27:32.498Z,4.20
2023-04-15T15:30:04.409Z,3.80
2023-04-15T15:32:36.045Z,5.90
2023-04-15T15:35:08.675Z,3.30
2023-04-15T15:37:41.091Z,3.60
2023-04-15T15:40:15.324Z,4.00
2023-04-15T15:42:50.119Z,6.90
2023-04-15T15:45:22.301Z,3.70
2023-04-15T15:47:54.850Z,3.40
2023-04-15T15:50:26.789Z,4.90
2023-04-15T15:52:59.033Z,5.30
2023-04-15T15:55:30.817Z,4.00
2023-04-15T15:58:02.478Z,5.10
2023-04-15T16:00:34.046Z,4.70
2023-04-15T16:03:07.182Z,6.30
2023-04-15T16:05:40.005Z,4.60
2023-04-15T16:08:11.596Z,5.10
2023-04-15T16:10:43.262Z,5.40
2023-04-15T16:13:14.825Z,4.40
2023-04-15T16:15:46.511Z,7.40
2023-04-15T16:18:18.093Z,4.90
2023-04-15T16:20:49.593Z,5.00
2023-04-15T16:23:24.237Z,4.20
2023-04-15T16:28:27.542Z,7.40
2023-04-15T16:30:59.077Z,5.90
2023-04-15T16:33:31.406Z,4.20
2023-04-15T16:36:03.249Z,6.90
2023-04-15T16:38:35.156Z,6.00
2023-04-15T16:41:07.265Z,4.90
2023-04-15T16:43:39.853Z,6.40
2023-04-15T16:46:11.854Z,6.50
2023-04-15T16:48:43.675Z,8.10
2023-04-15T16:51:15.232Z,7.70
2023-04-15T16:53:47.293Z,8.20
2023-04-15T16:56:19.175Z,8.30
2023-04-15T16:58:50.519Z,8.40
2023-04-15T17:01:23.310Z,8.30
2023-04-15T17:03:56.121Z,7.40
2023-04-15T17:06:28.643Z,10.50
2023-04-15T17:09:00.191Z,9.90
2023-04-15T17:11:33.266Z,10.50
2023-04-15T17:14:05.576Z,9.60
2023-04-15T17:16:37.740Z,9.90
2023-04-15T17:19:12.649Z,7.00
2023-04-15T17:21:44.818Z,8.10
2023-04-15T17:24:17.032Z,10.20
2023-04-15T17:26:49.796Z,9.80
2023-04-15T17:29:21.488Z,10.60
2023-04-15T17:31:53.163Z,9.40
2023-04-15T17:34:25.450Z,6.80
2023-04-15T17:37:20.934Z,10.20
2023-04-15T17:39:53.070Z,8.00
2023-04-15T17:42:27.726Z,9.80
2023-04-15T17:45:04.112Z,6.30
2023-04-15T17:47:37.877Z,8.70
2023-04-15T17:50:11.262Z,6.30
2023-04-15T17:52:44.331Z,7.40
2023-04-15T17:55:23.164Z,7.50
2023-04-15T17:58:02.462Z,6.50
2023-04-15T18:00:34.653Z,5.30
2023-04-15T18:03:08.474Z,6.10
2023-04-15T18:05:42.676Z,7.40
2023-04-15T18:08:15.100Z,6.20
2023-04-15T18:10:47.851Z,6.70
2023-04-15T18:13:21.973Z,6.50
2023-04-15T18:15:54.295Z,7.10
2023-04-15T18:18:29.293Z,5.70
2023-04-15T18:21:02.889Z,7.40
2023-04-15T18:23:35.691Z,8.30
2023-04-15T18:26:09.041Z,7.60
2023-04-15T18:28:41.957Z,6.40
2023-04-15T18:31:13.963Z,6.90
2023-04-15T18:33:46.629Z,7.40
2023-04-15T18:36:19.095Z,8.00
2023-04-15T18:38:52.124Z,7.10
2023-04-15T18:41:26.028Z,8.00
2023-04-15T18:43:59.755Z,8.40
2023-04-15T18:46:33.567Z,10.30
2023-04-15T18:49:10.465Z,8.40
2023-04-15T18:51:43.312Z,8.20
2023-04-15T18:54:16.244Z,7.30
2023-04-15T18:56:49.393Z,8.90
2023-04-15T18:59:30.099Z,8.60
2023-04-15T19:02:04.448Z,8.30
2023-04-15T19:04:37.540Z,8.20
2023-04-15T19:07:13.585Z,9.90
2023-04-15T19:09:48.230Z,11.30
2023-04-15T19:14:51.709Z,8.60
2023-04-15T19:17:26.241Z,8.50
2023-04-15T19:20:00.007Z,7.80
2023-04-15T19:22:38.988Z,6.80
2023-04-15T19:25:16.786Z,5.90
2023-04-15T19:27:48.866Z,5.20
2023-04-15T19:30:22.751Z,5.00
2023-04-15T19:32:56.150Z,7.20
2023-04-15T19:35:27.841Z,10.80
2023-04-15T19:38:05.810Z,12.20
2023-04-15T19:40:41.202Z,6.30
2023-04-15T19:43:18.144Z,6.10
2023-04-15T19:45:52.635Z,4.90
2023-04-15T19:48:26.315Z,5.90
2023-04-15T19:50:59.553Z,4.70
2023-04-15T19:53:34.336Z,5.00
2023-04-15T19:56:19.517Z,4.10
2023-04-15T19:58:54.244Z,5.40
2023-04-15T20:01:26.956Z,4.80
2023-04-15T20:04:00.310Z,5.40
2023-04-15T20:06:34.959Z,5.00
2023-04-15T20:09:10.951Z,6.00
2023-04-15T20:12:46.851Z,6.00
2023-04-15T20:14:37.019Z,5.20
2023-04-15T20:17:09.845Z,4.50
2023-04-15T20:19:42.964Z,5.40
2023-04-15T20:22:19.728Z,6.00
2023-04-15T20:24:52.970Z,4.60
2023-04-15T20:27:26.018Z,8.00
2023-04-15T20:29:58.906Z,16.00
2023-04-15T20:32:34.137Z,8.80
2023-04-15T20:35:07.201Z,9.60
2023-04-15T20:37:41.127Z,12.80
2023-04-15T20:40:16.567Z,11.30
2023-04-15T20:42:48.707Z,9.40
2023-04-15T20:45:20.668Z,13.10
2023-04-15T20:47:57.378Z,12.40
2023-04-15T20:50:30.115Z,11.50
2023-04-15T20:53:05.490Z,12.80
2023-04-15T20:55:37.498Z,11.40
2023-04-15T20:58:10.491Z,11.20
2023-04-15T21:00:42.394Z,15.30
2023-04-15T21:03:15.694Z,7.80
2023-04-15T21:05:47.455Z,15.50
2023-04-15T21:08:19.299Z,16.10
2023-04-15T21:10:50.867Z,31.50
2023-04-15T21:13:22.408Z,11.40
2023-04-15T21:15:54.809Z,22.50
2023-04-15T21:18:26.806Z,6.10
2023-04-15T21:21:02.974Z,9.90
2023-04-15T21:23:36.445Z,6.30
2023-04-15T21:26:08.401Z,6.90
2023-04-15T21:28:39.744Z,5.60
2023-04-15T21:31:11.231Z,7.60
2023-04-15T21:33:43.393Z,10.20
2023-04-15T21:36:14.911Z,13.60
2023-04-15T21:38:46.345Z,11.10
2023-04-15T21:41:17.983Z,13.30
2023-04-15T21:43:49.692Z,14.10
2023-04-15T21:46:25.382Z,10.40
2023-04-15T21:48:58.731Z,16.20
2023-04-15T21:51:30.303Z,15.10
2023-04-15T21:54:02.099Z,16.80
2023-04-15T21:56:33.526Z,16.10
2023-04-15T21:59:05.216Z,13.60
2023-04-15T22:01:36.963Z,12.50
2023-04-15T22:04:10.017Z,9.00
2023-04-15T22:06:41.593Z,10.40
2023-04-15T22:09:14.402Z,7.50
2023-04-15T22:11:47.542Z,8.80
2023-04-15T22:14:19.119Z,8.90
2023-04-15T22:16:50.497Z,7.80
2023-04-15T22:19:22.269Z,10.30
2023-04-15T22:21:54.613Z,10.00
2023-04-15T22:24:38.064Z,8.00
2023-04-15T22:27:12.244Z,9.30
2023-04-15T22:29:43.939Z,8.10
2023-04-15T22:32:15.598Z,8.90
2023-04-15T22:34:47.035Z,10.10
2023-04-15T22:37:18.705Z,10.00
2023-04-15T22:39:49.989Z,9.60
2023-04-15T22:42:21.427Z,11.60
2023-04-15T22:44:53.130Z,10.90
2023-04-15T22:47:24.462Z,9.30
2023-04-15T22:49:56.045Z,10.40
2023-04-15T22:52:30.910Z,14.00
2023-04-15T22:55:02.816Z,8.60
2023-04-15T22:57:34.252Z,13.10
2023-04-15T23:00:06.241Z,17.70
2023-04-15T23:02:38.370Z,13.30
2023-04-15T23:05:12.644Z,12.50
2023-04-15T23:10:14.413Z,11.40
2023-04-15T23:12:45.877Z,11.30
2023-04-15T23:15:17.367Z,14.00
2023-04-15T23:17:48.842Z,10.10
2023-04-15T23:20:21.293Z,10.20
2023-04-15T23:22:53.557Z,9.40
2023-04-15T23:25:25.090Z,10.80
2023-04-15T23:27:56.666Z,9.40
2023-04-15T23:30:28.258Z,8.80
2023-04-15T23:32:59.886Z,10.20
2023-04-15T23:35:31.210Z,9.40
2023-04-15T23:38:03.178Z,10.20
2023-04-15T23:40:35.239Z,9.70
2023-04-15T23:43:06.756Z,11.00
2023-04-15T23:45:38.376Z,11.00
2023-04-15T23:48:10.443Z,11.40
2023-04-15T23:50:41.993Z,9.80
2023-04-15T23:53:13.561Z,9.70
2023-04-15T23:55:46.352Z,10.40
2023-04-15T23:58:17.845Z,8.90
